sensor_id;sensor_type;location;lat;lon;timestamp;pressure;altitude;pressure_sealevel;temperature;humidity
38786;BME280;24535;45.508;12.252;2024-01-30T00:00:22;103632.69;;;10.60;52.14
38786;BME280;24535;45.508;12.252;2024-01-30T00:02:47;103631.78;;;10.61;52.86
38786;BME280;24535;45.508;12.252;2024-01-30T00:05:12;103637.91;;;10.63;52.10
38786;BME280;24535;45.508;12.252;2024-01-30T00:07:38;103632.69;;;10.61;52.20
38786;BME280;24535;45.508;12.252;2024-01-30T00:10:04;103638.88;;;10.59;52.49
38786;BME280;24535;45.508;12.252;2024-01-30T00:12:31;103633.63;;;10.57;52.63
38786;BME280;24535;45.508;12.252;2024-01-30T00:14:57;103638.00;;;10.57;52.51
38786;BME280;24535;45.508;12.252;2024-01-30T00:17:23;103625.75;;;10.56;52.43
38786;BME280;24535;45.508;12.252;2024-01-30T00:19:50;103626.69;;;10.53;52.33
38786;BME280;24535;45.508;12.252;2024-01-30T00:22:16;103626.69;;;10.52;52.00
38786;BME280;24535;45.508;12.252;2024-01-30T00:24:41;103635.47;;;10.52;52.34
38786;BME280;24535;45.508;12.252;2024-01-30T00:27:07;103627.56;;;10.52;52.47
38786;BME280;24535;45.508;12.252;2024-01-30T00:29:33;103629.34;;;10.52;52.34
38786;BME280;24535;45.508;12.252;2024-01-30T00:31:59;103621.44;;;10.52;52.14
38786;BME280;24535;45.508;12.252;2024-01-30T00:34:25;103619.66;;;10.52;51.99
38786;BME280;24535;45.508;12.252;2024-01-30T00:36:50;103630.19;;;10.52;52.16
38786;BME280;24535;45.508;12.252;2024-01-30T00:39:16;103634.59;;;10.53;51.82
38786;BME280;24535;45.508;12.252;2024-01-30T00:41:42;103622.28;;;10.52;51.99
38786;BME280;24535;45.508;12.252;2024-01-30T00:44:07;103616.22;;;10.50;51.86
38786;BME280;24535;45.508;12.252;2024-01-30T00:46:32;103617.94;;;10.51;51.92
38786;BME280;24535;45.508;12.252;2024-01-30T00:48:58;103623.16;;;10.53;52.43
38786;BME280;24535;45.508;12.252;2024-01-30T00:51:23;103617.94;;;10.51;52.24
38786;BME280;24535;45.508;12.252;2024-01-30T00:53:49;103622.28;;;10.54;52.39
38786;BME280;24535;45.508;12.252;2024-01-30T00:56:14;103619.59;;;10.55;52.01
38786;BME280;24535;45.508;12.252;2024-01-30T00:58:43;103617.94;;;10.51;51.98
38786;BME280;24535;45.508;12.252;2024-01-30T01:01:08;103613.56;;;10.49;52.19
38786;BME280;24535;45.508;12.252;2024-01-30T01:03:34;103615.34;;;10.50;51.69
38786;BME280;24535;45.508;12.252;2024-01-30T01:05:59;103608.31;;;10.49;52.11
38786;BME280;24535;45.508;12.252;2024-01-30T01:08:25;103611.84;;;10.48;52.27
38786;BME280;24535;45.508;12.252;2024-01-30T01:10:50;103606.63;;;10.46;52.16
38786;BME280;24535;45.508;12.252;2024-01-30T01:13:16;103615.38;;;10.47;51.88
38786;BME280;24535;45.508;12.252;2024-01-30T01:15:42;103614.53;;;10.46;51.81
38786;BME280;24535;45.508;12.252;2024-01-30T01:18:08;103613.66;;;10.46;51.61
38786;BME280;24535;45.508;12.252;2024-01-30T01:20:33;103618.06;;;10.45;51.63
38786;BME280;24535;45.508;12.252;2024-01-30T01:22:59;103615.38;;;10.47;51.97
38786;BME280;24535;45.508;12.252;2024-01-30T01:25:24;103609.31;;;10.43;51.82
38786;BME280;24535;45.508;12.252;2024-01-30T01:27:50;103606.69;;;10.43;51.66
38786;BME280;24535;45.508;12.252;2024-01-30T01:30:18;103611.94;;;10.43;51.97
38786;BME280;24535;45.508;12.252;2024-01-30T01:32:54;103603.19;;;10.41;51.80
38786;BME280;24535;45.508;12.252;2024-01-30T01:35:25;103601.44;;;10.42;51.76
38786;BME280;24535;45.508;12.252;2024-01-30T01:37:52;103605.81;;;10.43;51.91
38786;BME280;24535;45.508;12.252;2024-01-30T01:40:23;103601.47;;;10.40;52.15
38786;BME280;24535;45.508;12.252;2024-01-30T01:42:53;103609.34;;;10.42;51.87
38786;BME280;24535;45.508;12.252;2024-01-30T01:45:19;103604.03;;;10.43;51.91
38786;BME280;24535;45.508;12.252;2024-01-30T01:47:47;103599.69;;;10.42;51.38
38786;BME280;24535;45.508;12.252;2024-01-30T01:50:13;103591.81;;;10.39;51.74
38786;BME280;24535;45.508;12.252;2024-01-30T01:52:44;103600.56;;;10.41;51.40
38786;BME280;24535;45.508;12.252;2024-01-30T01:55:11;103590.09;;;10.36;51.77
38786;BME280;24535;45.508;12.252;2024-01-30T01:57:37;103594.47;;;10.39;51.79
38786;BME280;24535;45.508;12.252;2024-01-30T02:00:03;103591.88;;;10.37;51.74
38786;BME280;24535;45.508;12.252;2024-01-30T02:02:35;103589.25;;;10.36;51.55
38786;BME280;24535;45.508;12.252;2024-01-30T02:05:01;103585.69;;;10.37;51.75
38786;BME280;24535;45.508;12.252;2024-01-30T02:07:27;103581.34;;;10.36;51.36
38786;BME280;24535;45.508;12.252;2024-01-30T02:09:53;103583.06;;;10.37;51.58
38786;BME280;24535;45.508;12.252;2024-01-30T02:12:19;103578.75;;;10.34;51.89
38786;BME280;24535;45.508;12.252;2024-01-30T02:14:48;103583.97;;;10.36;51.61
38786;BME280;24535;45.508;12.252;2024-01-30T02:17:15;103588.38;;;10.35;51.23
38786;BME280;24535;45.508;12.252;2024-01-30T02:19:40;103582.28;;;10.33;51.58
38786;BME280;24535;45.508;12.252;2024-01-30T02:22:07;103586.59;;;10.37;51.27
38786;BME280;24535;45.508;12.252;2024-01-30T02:24:32;103579.63;;;10.35;51.61
38786;BME280;24535;45.508;12.252;2024-01-30T02:26:58;103590.16;;;10.35;51.27
38786;BME280;24535;45.508;12.252;2024-01-30T02:29:24;103569.97;;;10.34;51.45
38786;BME280;24535;45.508;12.252;2024-01-30T02:31:49;103576.13;;;10.33;51.96
38786;BME280;24535;45.508;12.252;2024-01-30T02:34:15;103571.72;;;10.35;51.65
38786;BME280;24535;45.508;12.252;2024-01-30T02:36:43;103574.38;;;10.33;51.75
38786;BME280;24535;45.508;12.252;2024-01-30T02:39:09;103574.34;;;10.35;51.03
38786;BME280;24535;45.508;12.252;2024-01-30T02:41:35;103568.22;;;10.34;50.92
38786;BME280;24535;45.508;12.252;2024-01-30T02:44:01;103572.63;;;10.34;51.26
38786;BME280;24535;45.508;12.252;2024-01-30T02:46:26;103570.00;;;10.32;51.33
38786;BME280;24535;45.508;12.252;2024-01-30T02:48:52;103573.50;;;10.33;51.29
38786;BME280;24535;45.508;12.252;2024-01-30T02:51:17;103570.91;;;10.31;51.26
38786;BME280;24535;45.508;12.252;2024-01-30T02:53:43;103570.03;;;10.31;51.04
38786;BME280;24535;45.508;12.252;2024-01-30T02:56:08;103563.91;;;10.30;51.17
38786;BME280;24535;45.508;12.252;2024-01-30T02:58:36;103563.84;;;10.32;51.38
38786;BME280;24535;45.508;12.252;2024-01-30T03:01:02;103563.91;;;10.30;51.41
38786;BME280;24535;45.508;12.252;2024-01-30T03:03:28;103557.75;;;10.30;50.80
38786;BME280;24535;45.508;12.252;2024-01-30T03:05:53;103561.25;;;10.30;51.12
38786;BME280;24535;45.508;12.252;2024-01-30T03:08:19;103554.28;;;10.28;51.13
38786;BME280;24535;45.508;12.252;2024-01-30T03:10:46;103558.63;;;10.29;51.00
38786;BME280;24535;45.508;12.252;2024-01-30T03:13:11;103553.38;;;10.29;50.90
38786;BME280;24535;45.508;12.252;2024-01-30T03:15:37;103557.81;;;10.27;51.07
38786;BME280;24535;45.508;12.252;2024-01-30T03:18:03;103555.13;;;10.28;50.73
38786;BME280;24535;45.508;12.252;2024-01-30T03:20:31;103549.00;;;10.28;50.83
38786;BME280;24535;45.508;12.252;2024-01-30T03:22:57;103555.19;;;10.27;50.95
38786;BME280;24535;45.508;12.252;2024-01-30T03:25:24;103551.69;;;10.26;51.06
38786;BME280;24535;45.508;12.252;2024-01-30T03:27:50;103548.19;;;10.26;50.80
38786;BME280;24535;45.508;12.252;2024-01-30T03:30:16;103549.06;;;10.25;50.54
38786;BME280;24535;45.508;12.252;2024-01-30T03:32:42;103549.94;;;10.24;50.64
38786;BME280;24535;45.508;12.252;2024-01-30T03:35:08;103545.56;;;10.23;50.89
38786;BME280;24535;45.508;12.252;2024-01-30T03:37:33;103548.22;;;10.23;50.81
38786;BME280;24535;45.508;12.252;2024-01-30T03:39:59;103547.34;;;10.22;50.63
38786;BME280;24535;45.508;12.252;2024-01-30T03:42:24;103542.06;;;10.22;50.92
38786;BME280;24535;45.508;12.252;2024-01-30T03:44:50;103551.72;;;10.23;50.46
38786;BME280;24535;45.508;12.252;2024-01-30T03:47:19;103548.16;;;10.24;51.08
38786;BME280;24535;45.508;12.252;2024-01-30T03:49:45;103554.34;;;10.25;51.01
38786;BME280;24535;45.508;12.252;2024-01-30T03:52:11;103551.69;;;10.25;50.98
38786;BME280;24535;45.508;12.252;2024-01-30T03:54:36;103552.56;;;10.24;50.41
38786;BME280;24535;45.508;12.252;2024-01-30T03:57:02;103556.97;;;10.23;50.97
38786;BME280;24535;45.508;12.252;2024-01-30T03:59:27;103544.72;;;10.21;50.68
38786;BME280;24535;45.508;12.252;2024-01-30T04:01:53;103538.63;;;10.19;51.33
38786;BME280;24535;45.508;12.252;2024-01-30T04:04:19;103543.00;;;10.20;50.82
38786;BME280;24535;45.508;12.252;2024-01-30T04:06:45;103542.13;;;10.19;50.68
38786;BME280;24535;45.508;12.252;2024-01-30T04:09:11;103547.41;;;10.19;50.49
38786;BME280;24535;45.508;12.252;2024-01-30T04:11:38;103543.94;;;10.17;50.83
38786;BME280;24535;45.508;12.252;2024-01-30T04:14:03;103545.69;;;10.16;50.42
38786;BME280;24535;45.508;12.252;2024-01-30T04:16:29;103539.59;;;10.14;50.52
38786;BME280;24535;45.508;12.252;2024-01-30T04:18:54;103543.09;;;10.15;50.67
38786;BME280;24535;45.508;12.252;2024-01-30T04:21:23;103539.63;;;10.13;50.32
38786;BME280;24535;45.508;12.252;2024-01-30T04:23:48;103545.75;;;10.13;50.28
38786;BME280;24535;45.508;12.252;2024-01-30T04:26:14;103545.75;;;10.13;50.31
38786;BME280;24535;45.508;12.252;2024-01-30T04:28:46;103541.38;;;10.14;50.35
38786;BME280;24535;45.508;12.252;2024-01-30T04:31:11;103537.88;;;10.13;50.76
38786;BME280;24535;45.508;12.252;2024-01-30T04:33:37;103537.00;;;10.13;50.33
38786;BME280;24535;45.508;12.252;2024-01-30T04:36:03;103532.59;;;10.12;50.32
38786;BME280;24535;45.508;12.252;2024-01-30T04:38:30;103537.88;;;10.13;50.00
38786;BME280;24535;45.508;12.252;2024-01-30T04:40:55;103532.69;;;10.09;50.30
38786;BME280;24535;45.508;12.252;2024-01-30T04:43:21;103537.06;;;10.10;49.93
38786;BME280;24535;45.508;12.252;2024-01-30T04:45:47;103534.38;;;10.11;50.36
38786;BME280;24535;45.508;12.252;2024-01-30T04:48:12;103542.28;;;10.11;49.77
38786;BME280;24535;45.508;12.252;2024-01-30T04:50:38;103531.75;;;10.11;50.49
38786;BME280;24535;45.508;12.252;2024-01-30T04:53:03;103544.03;;;10.11;50.34
38786;BME280;24535;45.508;12.252;2024-01-30T04:55:29;103543.19;;;10.10;50.57
38786;BME280;24535;45.508;12.252;2024-01-30T04:57:54;103540.59;;;10.09;50.61
38786;BME280;24535;45.508;12.252;2024-01-30T05:00:19;103541.47;;;10.09;50.05
38786;BME280;24535;45.508;12.252;2024-01-30T05:02:45;103547.59;;;10.08;49.93
38786;BME280;24535;45.508;12.252;2024-01-30T05:05:10;103547.63;;;10.07;50.20
38786;BME280;24535;45.508;12.252;2024-01-30T05:07:36;103542.41;;;10.04;50.42
38786;BME280;24535;45.508;12.252;2024-01-30T05:10:02;103544.19;;;10.05;50.33
38786;BME280;24535;45.508;12.252;2024-01-30T05:12:28;103546.81;;;10.03;49.92
38786;BME280;24535;45.508;12.252;2024-01-30T05:14:54;103551.28;;;10.01;50.63
38786;BME280;24535;45.508;12.252;2024-01-30T05:17:19;103555.59;;;10.04;50.10
38786;BME280;24535;45.508;12.252;2024-01-30T05:19:45;103546.00;;;10.01;50.11
38786;BME280;24535;45.508;12.252;2024-01-30T05:22:10;103549.47;;;10.03;49.85
38786;BME280;24535;45.508;12.252;2024-01-30T05:24:36;103559.97;;;10.05;49.96
38786;BME280;24535;45.508;12.252;2024-01-30T05:27:02;103553.91;;;10.01;49.66
38786;BME280;24535;45.508;12.252;2024-01-30T05:29:27;103568.75;;;10.04;50.00
38786;BME280;24535;45.508;12.252;2024-01-30T05:31:53;103561.75;;;10.03;50.10
38786;BME280;24535;45.508;12.252;2024-01-30T05:34:18;103559.19;;;10.00;49.72
38786;BME280;24535;45.508;12.252;2024-01-30T05:36:44;103565.31;;;10.02;49.77
38786;BME280;24535;45.508;12.252;2024-01-30T05:39:09;103567.06;;;10.01;50.21
38786;BME280;24535;45.508;12.252;2024-01-30T05:41:35;103565.31;;;10.00;50.01
38786;BME280;24535;45.508;12.252;2024-01-30T05:44:01;103569.75;;;9.98;50.11
38786;BME280;24535;45.508;12.252;2024-01-30T05:46:26;103578.47;;;10.00;49.48
38786;BME280;24535;45.508;12.252;2024-01-30T05:48:52;103575.84;;;10.00;50.16
38786;BME280;24535;45.508;12.252;2024-01-30T05:51:17;103574.13;;;9.99;49.65
38786;BME280;24535;45.508;12.252;2024-01-30T05:53:43;103574.16;;;9.98;50.09
38786;BME280;24535;45.508;12.252;2024-01-30T05:56:08;103580.25;;;10.00;49.72
38786;BME280;24535;45.508;12.252;2024-01-30T05:58:33;103583.75;;;10.00;49.65
38786;BME280;24535;45.508;12.252;2024-01-30T06:00:59;103588.19;;;9.98;49.39
38786;BME280;24535;45.508;12.252;2024-01-30T06:03:24;103587.31;;;9.98;49.82
38786;BME280;24535;45.508;12.252;2024-01-30T06:05:50;103589.06;;;9.99;49.92
38786;BME280;24535;45.508;12.252;2024-01-30T06:08:15;103582.06;;;9.96;49.62
38786;BME280;24535;45.508;12.252;2024-01-30T06:10:41;103587.31;;;9.98;49.71
38786;BME280;24535;45.508;12.252;2024-01-30T06:13:06;103586.47;;;9.97;49.97
38786;BME280;24535;45.508;12.252;2024-01-30T06:15:32;103584.69;;;9.96;49.53
38786;BME280;24535;45.508;12.252;2024-01-30T06:17:58;103582.97;;;9.97;49.54
38786;BME280;24535;45.508;12.252;2024-01-30T06:20:23;103575.13;;;9.92;49.62
38786;BME280;24535;45.508;12.252;2024-01-30T06:22:49;103580.38;;;9.92;49.56
38786;BME280;24535;45.508;12.252;2024-01-30T06:25:14;103577.75;;;9.94;49.67
38786;BME280;24535;45.508;12.252;2024-01-30T06:27:41;103589.97;;;9.96;49.41
38786;BME280;24535;45.508;12.252;2024-01-30T06:30:07;103588.25;;;9.95;49.79
38786;BME280;24535;45.508;12.252;2024-01-30T06:32:32;103585.66;;;9.94;49.77
38786;BME280;24535;45.508;12.252;2024-01-30T06:35:02;103584.78;;;9.93;49.22
38786;BME280;24535;45.508;12.252;2024-01-30T06:37:28;103583.88;;;9.94;49.41
38786;BME280;24535;45.508;12.252;2024-01-30T06:39:53;103590.03;;;9.93;49.50
38786;BME280;24535;45.508;12.252;2024-01-30T06:42:19;103587.41;;;9.93;49.32
38786;BME280;24535;45.508;12.252;2024-01-30T06:44:45;103586.50;;;9.94;49.06
38786;BME280;24535;45.508;12.252;2024-01-30T06:47:10;103586.53;;;9.93;49.28
38786;BME280;24535;45.508;12.252;2024-01-30T06:49:36;103584.78;;;9.93;49.33
38786;BME280;24535;45.508;12.252;2024-01-30T06:52:05;103592.69;;;9.91;49.50
38786;BME280;24535;45.508;12.252;2024-01-30T06:54:30;103590.00;;;9.95;49.34
38786;BME280;24535;45.508;12.252;2024-01-30T06:56:56;103597.91;;;9.95;49.16
38786;BME280;24535;45.508;12.252;2024-01-30T06:59:21;103595.31;;;9.93;48.92
38786;BME280;24535;45.508;12.252;2024-01-30T07:01:47;103594.44;;;9.93;49.17
38786;BME280;24535;45.508;12.252;2024-01-30T07:04:13;103591.81;;;9.93;48.96
38786;BME280;24535;45.508;12.252;2024-01-30T07:06:38;103592.72;;;9.90;49.63
38786;BME280;24535;45.508;12.252;2024-01-30T07:09:06;103592.69;;;9.91;49.26
38786;BME280;24535;45.508;12.252;2024-01-30T07:11:32;103597.09;;;9.91;49.34
38786;BME280;24535;45.508;12.252;2024-01-30T07:13:57;103598.84;;;9.90;49.55
38786;BME280;24535;45.508;12.252;2024-01-30T07:16:23;103599.72;;;9.91;49.79
38786;BME280;24535;45.508;12.252;2024-01-30T07:18:48;103600.63;;;9.90;49.19
38786;BME280;24535;45.508;12.252;2024-01-30T07:21:14;103608.47;;;9.91;49.43
38786;BME280;24535;45.508;12.252;2024-01-30T07:23:40;103612.03;;;9.90;49.44
38786;BME280;24535;45.508;12.252;2024-01-30T07:26:07;103611.13;;;9.91;49.70
38786;BME280;24535;45.508;12.252;2024-01-30T07:28:34;103610.25;;;9.93;49.50
38786;BME280;24535;45.508;12.252;2024-01-30T07:31:00;103609.34;;;9.92;49.45
38786;BME280;24535;45.508;12.252;2024-01-30T07:33:25;103611.13;;;9.91;48.97
38786;BME280;24535;45.508;12.252;2024-01-30T07:35:52;103617.25;;;9.94;49.16
38786;BME280;24535;45.508;12.252;2024-01-30T07:38:18;103622.47;;;9.95;49.08
38786;BME280;24535;45.508;12.252;2024-01-30T07:40:43;103629.47;;;9.96;49.57
38786;BME280;24535;45.508;12.252;2024-01-30T07:43:09;103620.78;;;9.93;49.10
38786;BME280;24535;45.508;12.252;2024-01-30T07:45:34;103638.28;;;9.95;49.72
38786;BME280;24535;45.508;12.252;2024-01-30T07:48:00;103638.28;;;9.95;49.52
38786;BME280;24535;45.508;12.252;2024-01-30T07:50:26;103631.34;;;9.89;48.66
38786;BME280;24535;45.508;12.252;2024-01-30T07:52:51;103636.56;;;9.93;49.19
38786;BME280;24535;45.508;12.252;2024-01-30T07:55:20;103637.44;;;9.93;49.51
38786;BME280;24535;45.508;12.252;2024-01-30T07:57:47;103636.59;;;9.91;49.75
38786;BME280;24535;45.508;12.252;2024-01-30T08:00:14;103640.03;;;9.95;49.49
38786;BME280;24535;45.508;12.252;2024-01-30T08:02:39;103640.06;;;9.93;49.46
38786;BME280;24535;45.508;12.252;2024-01-30T08:05:05;103640.94;;;9.92;49.68
38786;BME280;24535;45.508;12.252;2024-01-30T08:07:30;103640.03;;;9.95;49.31
38786;BME280;24535;45.508;12.252;2024-01-30T08:09:56;103646.16;;;9.95;49.05
38786;BME280;24535;45.508;12.252;2024-01-30T08:12:21;103642.66;;;9.95;49.14
38786;BME280;24535;45.508;12.252;2024-01-30T08:14:46;103643.53;;;9.97;49.25
38786;BME280;24535;45.508;12.252;2024-01-30T08:17:12;103644.41;;;9.96;49.52
38786;BME280;24535;45.508;12.252;2024-01-30T08:19:37;103646.16;;;9.95;49.08
38786;BME280;24535;45.508;12.252;2024-01-30T08:22:03;103651.44;;;9.97;49.45
38786;BME280;24535;45.508;12.252;2024-01-30T08:24:28;103640.00;;;9.96;49.05
38786;BME280;24535;45.508;12.252;2024-01-30T08:26:54;103652.25;;;9.99;49.30
38786;BME280;24535;45.508;12.252;2024-01-30T08:29:19;103651.34;;;10.00;49.80
38786;BME280;24535;45.508;12.252;2024-01-30T08:31:45;103650.47;;;9.99;49.42
38786;BME280;24535;45.508;12.252;2024-01-30T08:34:11;103651.34;;;10.01;49.60
38786;BME280;24535;45.508;12.252;2024-01-30T08:36:36;103650.44;;;10.02;49.38
38786;BME280;24535;45.508;12.252;2024-01-30T08:39:02;103645.22;;;10.01;49.50
38786;BME280;24535;45.508;12.252;2024-01-30T08:41:28;103644.31;;;10.00;50.27
38786;BME280;24535;45.508;12.252;2024-01-30T08:43:53;103653.91;;;10.04;49.45
38786;BME280;24535;45.508;12.252;2024-01-30T08:46:19;103647.81;;;10.02;49.83
38786;BME280;24535;45.508;12.252;2024-01-30T08:48:46;103648.59;;;10.07;49.69
38786;BME280;24535;45.508;12.252;2024-01-30T08:51:13;103654.56;;;10.17;49.74
38786;BME280;24535;45.508;12.252;2024-01-30T08:53:39;103645.34;;;10.43;50.65
38786;BME280;24535;45.508;12.252;2024-01-30T08:56:06;103637.59;;;10.77;51.72
38786;BME280;24535;45.508;12.252;2024-01-30T08:58:31;103637.66;;;11.16;51.90
38786;BME280;24535;45.508;12.252;2024-01-30T09:00:57;103638.72;;;11.46;50.82
38786;BME280;24535;45.508;12.252;2024-01-30T09:03:22;103631.22;;;11.64;50.26
38786;BME280;24535;45.508;12.252;2024-01-30T09:05:48;103631.75;;;11.79;49.92
38786;BME280;24535;45.508;12.252;2024-01-30T09:08:13;103629.59;;;11.95;49.23
38786;BME280;24535;45.508;12.252;2024-01-30T09:10:39;103631.84;;;12.10;49.47
38786;BME280;24535;45.508;12.252;2024-01-30T09:13:04;103630.66;;;12.22;49.17
38786;BME280;24535;45.508;12.252;2024-01-30T09:15:29;103630.38;;;12.32;49.48
38786;BME280;24535;45.508;12.252;2024-01-30T09:17:55;103624.94;;;12.37;48.81
38786;BME280;24535;45.508;12.252;2024-01-30T09:20:20;103634.69;;;12.35;48.09
38786;BME280;24535;45.508;12.252;2024-01-30T09:22:47;103633.00;;;12.32;47.63
38786;BME280;24535;45.508;12.252;2024-01-30T09:25:13;103637.50;;;12.29;48.14
38786;BME280;24535;45.508;12.252;2024-01-30T09:27:38;103639.31;;;12.27;47.50
38786;BME280;24535;45.508;12.252;2024-01-30T09:30:05;103644.78;;;12.21;47.54
38786;BME280;24535;45.508;12.252;2024-01-30T09:32:31;103645.72;;;12.18;47.24
38786;BME280;24535;45.508;12.252;2024-01-30T09:34:57;103645.72;;;12.18;48.16
38786;BME280;24535;45.508;12.252;2024-01-30T09:37:22;103633.34;;;12.20;47.86
38786;BME280;24535;45.508;12.252;2024-01-30T09:39:48;103639.50;;;12.19;47.30
38786;BME280;24535;45.508;12.252;2024-01-30T09:42:50;103636.78;;;12.22;46.97
38786;BME280;24535;45.508;12.252;2024-01-30T09:45:17;103638.53;;;12.23;48.13
38786;BME280;24535;45.508;12.252;2024-01-30T09:47:44;103635.66;;;12.32;48.44
38786;BME280;24535;45.508;12.252;2024-01-30T09:50:11;103627.97;;;12.54;48.99
38786;BME280;24535;45.508;12.252;2024-01-30T09:52:37;103629.72;;;12.85;49.00
38786;BME280;24535;45.508;12.252;2024-01-30T09:55:03;103620.06;;;13.12;48.88
38786;BME280;24535;45.508;12.252;2024-01-30T09:57:32;103620.31;;;13.34;47.75
38786;BME280;24535;45.508;12.252;2024-01-30T09:59:58;103619.91;;;13.46;47.89
38786;BME280;24535;45.508;12.252;2024-01-30T10:02:23;103622.19;;;13.57;47.86
38786;BME280;24535;45.508;12.252;2024-01-30T10:04:50;103614.16;;;13.60;47.43
38786;BME280;24535;45.508;12.252;2024-01-30T10:07:17;103618.84;;;13.52;46.70
38786;BME280;24535;45.508;12.252;2024-01-30T10:09:42;103614.72;;;13.43;47.87
38786;BME280;24535;45.508;12.252;2024-01-30T10:12:11;103612.44;;;13.31;47.64
38786;BME280;24535;45.508;12.252;2024-01-30T10:14:41;103613.59;;;13.22;47.89
38786;BME280;24535;45.508;12.252;2024-01-30T10:17:10;103616.47;;;13.15;47.32
38786;BME280;24535;45.508;12.252;2024-01-30T10:19:37;103616.75;;;13.05;47.84
38786;BME280;24535;45.508;12.252;2024-01-30T10:22:03;103617.94;;;12.95;47.65
38786;BME280;24535;45.508;12.252;2024-01-30T10:24:29;103621.81;;;12.83;47.76
38786;BME280;24535;45.508;12.252;2024-01-30T10:26:55;103616.00;;;12.72;46.85
38786;BME280;24535;45.508;12.252;2024-01-30T10:29:21;103616.25;;;12.63;47.68
38786;BME280;24535;45.508;12.252;2024-01-30T10:32:03;103611.25;;;12.54;46.65
38786;BME280;24535;45.508;12.252;2024-01-30T10:34:29;103610.66;;;12.44;47.00
38786;BME280;24535;45.508;12.252;2024-01-30T10:37:04;103612.66;;;12.36;47.33
38786;BME280;24535;45.508;12.252;2024-01-30T10:39:37;103605.88;;;12.26;47.32
38786;BME280;24535;45.508;12.252;2024-01-30T10:42:04;103613.13;;;12.18;47.05
38786;BME280;24535;45.508;12.252;2024-01-30T10:44:36;103608.06;;;12.10;47.24
38786;BME280;24535;45.508;12.252;2024-01-30T10:47:06;103607.38;;;12.03;46.87
38786;BME280;24535;45.508;12.252;2024-01-30T10:49:35;103605.75;;;11.98;47.56
38786;BME280;24535;45.508;12.252;2024-01-30T10:52:01;103598.88;;;11.92;47.22
38786;BME280;24535;45.508;12.252;2024-01-30T10:54:28;103600.84;;;11.84;47.09
38786;BME280;24535;45.508;12.252;2024-01-30T10:56:54;103593.88;;;11.80;47.20
38786;BME280;24535;45.508;12.252;2024-01-30T10:59:22;103599.28;;;11.74;47.55
38786;BME280;24535;45.508;12.252;2024-01-30T11:01:49;103590.56;;;11.70;47.41
38786;BME280;24535;45.508;12.252;2024-01-30T11:04:16;103587.13;;;11.68;47.16
38786;BME280;24535;45.508;12.252;2024-01-30T11:06:41;103583.75;;;11.63;47.63
38786;BME280;24535;45.508;12.252;2024-01-30T11:09:11;103577.66;;;11.59;48.04
38786;BME280;24535;45.508;12.252;2024-01-30T11:11:58;103570.69;;;11.57;48.33
38786;BME280;24535;45.508;12.252;2024-01-30T11:14:29;103577.78;;;11.55;47.94
38786;BME280;24535;45.508;12.252;2024-01-30T11:16:58;103567.31;;;11.52;47.83
38786;BME280;24535;45.508;12.252;2024-01-30T11:19:30;103566.44;;;11.50;47.74
38786;BME280;24535;45.508;12.252;2024-01-30T11:21:56;103559.44;;;11.49;48.01
38786;BME280;24535;45.508;12.252;2024-01-30T11:24:24;103556.84;;;11.47;48.25
38786;BME280;24535;45.508;12.252;2024-01-30T11:26:55;103553.34;;;11.47;48.11
38786;BME280;24535;45.508;12.252;2024-01-30T11:29:25;103550.72;;;11.45;48.14
38786;BME280;24535;45.508;12.252;2024-01-30T11:32:00;103556.00;;;11.45;48.02
38786;BME280;24535;45.508;12.252;2024-01-30T11:34:25;103545.47;;;11.45;47.97
38786;BME280;24535;45.508;12.252;2024-01-30T11:36:52;103544.59;;;11.45;48.15
38786;BME280;24535;45.508;12.252;2024-01-30T11:39:26;103542.81;;;11.45;48.55
38786;BME280;24535;45.508;12.252;2024-01-30T11:41:52;103540.22;;;11.44;48.85
38786;BME280;24535;45.508;12.252;2024-01-30T11:44:22;103533.22;;;11.43;48.50
38786;BME280;24535;45.508;12.252;2024-01-30T11:46:47;103534.03;;;11.45;49.06
38786;BME280;24535;45.508;12.252;2024-01-30T11:49:13;103533.19;;;11.44;48.56
38786;BME280;24535;45.508;12.252;2024-01-30T11:51:39;103537.53;;;11.45;48.34
38786;BME280;24535;45.508;12.252;2024-01-30T11:54:04;103513.84;;;11.42;48.75
38786;BME280;24535;45.508;12.252;2024-01-30T11:56:30;103512.19;;;11.39;48.66
38786;BME280;24535;45.508;12.252;2024-01-30T11:58:55;103515.59;;;11.43;48.57
38786;BME280;24535;45.508;12.252;2024-01-30T12:01:21;103507.69;;;11.43;49.21
38786;BME280;24535;45.508;12.252;2024-01-30T12:03:50;103503.28;;;11.44;48.69
38786;BME280;24535;45.508;12.252;2024-01-30T12:06:16;103500.63;;;11.44;49.08
38786;BME280;24535;45.508;12.252;2024-01-30T12:08:42;103497.09;;;11.45;48.48
38786;BME280;24535;45.508;12.252;2024-01-30T12:11:07;103485.66;;;11.44;48.93
38786;BME280;24535;45.508;12.252;2024-01-30T12:13:33;103484.78;;;11.44;48.64
38786;BME280;24535;45.508;12.252;2024-01-30T12:16:00;103475.09;;;11.44;49.22
38786;BME280;24535;45.508;12.252;2024-01-30T12:18:26;103484.78;;;11.44;48.85
38786;BME280;24535;45.508;12.252;2024-01-30T12:20:59;103477.69;;;11.46;48.81
38786;BME280;24535;45.508;12.252;2024-01-30T12:23:25;103482.97;;;11.46;48.92
38786;BME280;24535;45.508;12.252;2024-01-30T12:25:51;103468.97;;;11.44;49.01
38786;BME280;24535;45.508;12.252;2024-01-30T12:28:17;103469.78;;;11.46;49.40
38786;BME280;24535;45.508;12.252;2024-01-30T12:30:43;103467.13;;;11.46;49.08
38786;BME280;24535;45.508;12.252;2024-01-30T12:33:08;103472.34;;;11.49;48.85
38786;BME280;24535;45.508;12.252;2024-01-30T12:35:35;103460.06;;;11.48;49.20
38786;BME280;24535;45.508;12.252;2024-01-30T12:38:02;103458.28;;;11.48;49.02